Time;durP1;ratioP1;P1;durP2;ratioP2;P2;SDS_P1;SDS_P2;PMS_P1;PMS_P2;Temp;Humidity;BMP_temperature;BMP_pressure;BME280_temperature;BME280_humidity;BME280_pressure;Samples;Min_cycle;Max_cycle;Signal;HPM_P1;HPM_P2
2023/03/22 00:01:18;;;;;;;6.57;5.20;;;;;;;11.38;95.89;96526.31;5044092;28;20203;-58
2023/03/22 00:03:44;;;;;;;5.10;4.60;;;;;;;11.32;97.42;96521.63;5043323;28;20272;-58
2023/03/22 00:06:11;;;;;;;4.60;4.23;;;;;;;11.31;97.17;96518.16;5043224;28;20207;-57
2023/03/22 00:08:38;;;;;;;5.40;5.00;;;;;;;11.31;97.15;96519.97;5044250;28;20261;-57
2023/03/22 00:11:06;;;;;;;5.50;5.10;;;;;;;11.27;97.39;96521.25;5043899;28;20200;-58
2023/03/22 00:13:37;;;;;;;4.90;4.50;;;;;;;11.23;97.61;96514.59;5043640;28;20627;-58
2023/03/22 00:16:03;;;;;;;5.87;4.50;;;;;;;11.16;99.18;96510.91;5052605;28;20230;-58
2023/03/22 00:18:32;;;;;;;5.53;4.83;;;;;;;11.12;99.93;96506.88;5055414;28;20235;-58
2023/03/22 00:21:01;;;;;;;4.57;4.23;;;;;;;11.09;99.67;96501.88;5055596;28;20208;-57
2023/03/22 00:23:28;;;;;;;6.83;4.10;;;;;;;11.07;100.00;96503.84;5046363;28;20203;-56
2023/03/22 00:25:55;;;;;;;4.97;4.57;;;;;;;11.03;100.00;96505.13;5043822;28;20196;-58
2023/03/22 00:28:21;;;;;;;4.87;4.47;;;;;;;10.99;100.00;96500.13;5043621;28;20233;-57
2023/03/22 00:30:56;;;;;;;5.03;4.57;;;;;;;11.02;100.00;96500.81;5043368;28;20204;-58
2023/03/22 00:33:23;;;;;;;4.40;4.00;;;;;;;11.02;100.00;96501.63;5026782;28;20603;-58
2023/03/22 00:35:51;;;;;;;4.53;4.13;;;;;;;10.94;100.00;96494.47;5025409;28;20208;-58
2023/03/22 00:38:17;;;;;;;4.50;4.10;;;;;;;10.87;100.00;96490.75;5025516;28;20207;-57
2023/03/22 00:40:44;;;;;;;4.47;3.90;;;;;;;10.84;100.00;96498.94;5042984;28;20207;-57
2023/03/22 00:43:13;;;;;;;4.17;3.87;;;;;;;10.86;100.00;96497.00;5043191;28;20211;-58
2023/03/22 00:45:40;;;;;;;4.50;4.00;;;;;;;10.75;100.00;96499.84;5042580;28;20239;-58
2023/03/22 00:48:09;;;;;;;4.60;3.70;;;;;;;10.78;100.00;96504.84;5042857;28;20242;-58
2023/03/22 00:50:36;;;;;;;4.33;3.93;;;;;;;10.75;100.00;96499.84;5042147;28;20642;-58
2023/03/22 00:53:04;;;;;;;4.20;3.90;;;;;;;10.67;100.00;96499.75;5043025;28;20226;-56
2023/03/22 00:55:32;;;;;;;5.53;3.77;;;;;;;10.68;100.00;96498.78;5042919;28;20199;-58
2023/03/22 00:57:59;;;;;;;3.80;3.50;;;;;;;10.67;100.00;96502.38;5043704;28;20207;-58
2023/03/22 01:00:26;;;;;;;6.33;3.87;;;;;;;10.65;100.00;96498.25;5044159;28;20208;-58
2023/03/22 01:02:58;;;;;;;4.20;3.80;;;;;;;10.62;100.00;96494.09;5056927;28;20214;-57
2023/03/22 01:05:28;;;;;;;4.07;3.63;;;;;;;10.60;100.00;96501.31;5059212;28;20227;-58
2023/03/22 01:07:55;;;;;;;4.10;3.63;;;;;;;10.46;100.00;96500.00;5043258;28;20207;-58
2023/03/22 01:10:22;;;;;;;3.77;3.47;;;;;;;10.39;100.00;96490.13;5044991;28;20250;-58
2023/03/22 01:12:50;;;;;;;4.17;3.40;;;;;;;10.36;100.00;96499.19;5056515;28;20199;-59
2023/03/22 01:15:16;;;;;;;3.67;3.30;;;;;;;10.33;100.00;96490.72;5046801;28;20218;-58
2023/03/22 01:17:43;;;;;;;4.10;3.33;;;;;;;10.31;100.00;96490.84;5062625;28;20231;-58
2023/03/22 01:20:14;;;;;;;5.10;3.60;;;;;;;10.24;100.00;96481.00;5062556;28;20195;-58
2023/03/22 01:22:42;;;;;;;4.13;3.77;;;;;;;10.18;100.00;96474.50;5061170;28;20676;-58
2023/03/22 01:25:12;;;;;;;4.23;3.90;;;;;;;10.19;100.00;96475.34;5054187;28;20203;-57
2023/03/22 01:27:38;;;;;;;3.70;3.40;;;;;;;10.16;100.00;96470.34;5052346;28;20230;-59
2023/03/22 01:30:06;;;;;;;4.03;3.67;;;;;;;10.13;100.00;96470.63;5052147;28;20222;-58
2023/03/22 01:32:32;;;;;;;3.47;3.10;;;;;;;10.06;100.00;96465.03;5051546;28;20214;-58
2023/03/22 01:34:59;;;;;;;4.00;3.40;;;;;;;9.97;100.00;96465.91;5052488;28;20211;-58
2023/03/22 01:37:26;;;;;;;4.07;3.67;;;;;;;9.88;100.00;96457.03;5052805;28;20214;-59
2023/03/22 01:39:54;;;;;;;4.43;3.30;;;;;;;9.85;100.00;96461.78;5052263;28;20253;-59
2023/03/22 01:42:22;;;;;;;5.87;3.83;;;;;;;9.75;100.00;96456.53;5052255;28;20334;-58
2023/03/22 01:45:24;;;;;;;3.90;3.50;;;;;;;9.73;100.00;96458.50;5051512;28;20715;-59
2023/03/22 01:47:54;;;;;;;4.00;3.57;;;;;;;9.64;100.00;96459.31;5022754;28;20535;-58
2023/03/22 01:50:21;;;;;;;4.53;3.40;;;;;;;9.59;100.00;96445.72;5051189;28;20585;-58
2023/03/22 01:52:49;;;;;;;3.63;3.40;;;;;;;9.53;100.00;96448.91;5051566;28;20268;-57
2023/03/22 01:55:17;;;;;;;3.73;3.43;;;;;;;9.46;100.00;96445.16;5051284;28;20543;-58
2023/03/22 01:57:43;;;;;;;6.47;3.50;;;;;;;9.41;100.00;96440.34;5051633;28;20280;-57
2023/03/22 02:00:14;;;;;;;6.43;3.30;;;;;;;9.40;100.00;96437.81;5050997;28;20657;-57
2023/03/22 02:02:41;;;;;;;3.00;2.80;;;;;;;9.38;100.00;96442.44;5050731;28;20639;-58
2023/03/22 02:05:08;;;;;;;3.30;3.00;;;;;;;9.30;100.00;96448.41;5050200;28;20639;-56
2023/03/22 02:07:36;;;;;;;4.57;3.20;;;;;;;9.24;100.00;96451.59;5050887;28;20199;-57
2023/03/22 02:10:10;;;;;;;3.17;2.97;;;;;;;9.20;100.00;96442.31;5051204;28;20227;-57
2023/03/22 02:12:45;;;;;;;4.93;3.00;;;;;;;9.16;100.00;96448.81;5051094;28;20214;-58
2023/03/22 02:15:16;;;;;;;4.17;3.17;;;;;;;9.15;100.00;96446.31;5050624;28;20232;-58
2023/03/22 02:17:52;;;;;;;4.83;2.77;;;;;;;9.16;100.00;96442.72;5051384;28;20230;-57
2023/03/22 02:20:54;;;;;;;2.90;2.70;;;;;;;9.06;100.00;96442.72;5049936;28;20199;-57
2023/03/22 02:24:05;;;;;;;3.23;3.00;;;;;;;9.05;100.00;96445.47;5030889;28;20207;-58
2023/03/22 02:27:10;;;;;;;3.20;2.70;;;;;;;8.99;100.00;96436.31;5050601;28;20199;-58
2023/03/22 02:29:43;;;;;;;6.00;3.27;;;;;;;8.95;100.00;96434.94;5050331;28;20219;-58
2023/03/22 02:32:42;;;;;;;3.47;3.20;;;;;;;8.94;100.00;96434.09;5051019;28;20229;-58
2023/03/22 02:35:38;;;;;;;3.80;2.90;;;;;;;8.90;100.00;96426.59;5050027;28;20539;-57
2023/03/22 02:38:46;;;;;;;4.13;3.30;;;;;;;8.86;100.00;96430.47;5052001;28;20203;-59
2023/03/22 02:41:17;;;;;;;3.20;2.90;;;;;;;8.76;100.00;96441.00;5059839;28;20217;-58
2023/03/22 02:43:52;;;;;;;5.43;2.87;;;;;;;8.72;100.00;96439.63;5060086;28;20196;-58
2023/03/22 02:46:24;;;;;;;3.23;2.90;;;;;;;8.70;100.00;96441.56;5053926;28;20203;-58
2023/03/22 02:48:56;;;;;;;4.30;2.57;;;;;;;8.75;100.00;96434.06;5051134;28;20721;-58
2023/03/22 02:51:25;;;;;;;5.43;2.60;;;;;;;8.67;100.00;96433.94;5050279;28;20639;-58
2023/03/22 02:53:56;;;;;;;3.13;2.93;;;;;;;8.65;100.00;96449.03;5051634;28;20207;-57
2023/03/22 02:56:25;;;;;;;4.50;2.90;;;;;;;8.63;100.00;96435.19;5051032;28;20191;-58
2023/03/22 02:58:54;;;;;;;3.47;2.70;;;;;;;8.62;100.00;96444.03;5051426;28;20214;-57
2023/03/22 03:01:24;;;;;;;4.60;2.90;;;;;;;8.56;100.00;96436.69;5053246;28;20226;-57
2023/03/22 03:03:54;;;;;;;3.83;3.17;;;;;;;8.55;100.00;96437.66;5054707;28;20222;-58
2023/03/22 03:06:24;;;;;;;3.17;2.90;;;;;;;8.53;100.00;96442.22;5054590;28;20650;-57
2023/03/22 03:08:53;;;;;;;3.20;2.90;;;;;;;8.51;100.00;96441.50;5054379;28;20246;-58
2023/03/22 03:11:20;;;;;;;3.13;2.83;;;;;;;8.44;100.00;96446.50;5054551;28;20195;-58
2023/03/22 03:13:47;;;;;;;4.67;3.00;;;;;;;8.44;100.00;96440.38;5054671;28;20210;-58
2023/03/22 03:16:16;;;;;;;3.80;3.30;;;;;;;8.45;100.00;96439.44;5053752;28;20265;-57
2023/03/22 03:18:47;;;;;;;4.73;3.00;;;;;;;8.35;100.00;96449.13;5053573;28;20554;-58
2023/03/22 03:21:23;;;;;;;3.80;2.97;;;;;;;8.35;100.00;96441.22;5054112;28;20291;-58
2023/03/22 03:23:59;;;;;;;4.63;3.03;;;;;;;8.18;100.00;96441.81;5056357;28;20209;-58
2023/03/22 03:26:34;;;;;;;3.07;2.87;;;;;;;8.19;100.00;96440.84;5058424;28;20232;-58
2023/03/22 03:29:03;;;;;;;2.87;2.67;;;;;;;8.23;100.00;96439.59;5058210;28;20285;-57
2023/03/22 03:31:35;;;;;;;3.87;3.07;;;;;;;8.22;100.00;96440.59;5055126;28;20211;-58
2023/03/22 03:34:07;;;;;;;3.07;2.87;;;;;;;8.16;100.00;96435.84;5054118;28;20648;-58
2023/03/22 03:36:36;;;;;;;3.17;2.93;;;;;;;8.18;100.00;96444.47;5060082;28;20217;-58
2023/03/22 03:39:08;;;;;;;3.20;2.93;;;;;;;8.09;100.00;96456.59;5071320;28;20208;-58
2023/03/22 03:41:35;;;;;;;3.17;2.93;;;;;;;8.09;100.00;96455.78;5070414;28;20187;-58
2023/03/22 03:44:03;;;;;;;4.13;2.70;;;;;;;8.08;100.00;96454.94;5070325;28;20236;-57
2023/03/22 03:46:31;;;;;;;3.60;3.20;;;;;;;8.11;100.00;96459.13;5067326;28;20195;-58
2023/03/22 03:48:58;;;;;;;2.83;2.63;;;;;;;8.11;100.00;96453.84;5054054;28;21570;-58
2023/03/22 03:51:27;;;;;;;4.13;3.00;;;;;;;8.07;100.00;96452.44;5053798;28;20195;-57
2023/03/22 03:53:54;;;;;;;3.00;2.80;;;;;;;8.05;100.00;96444.66;5036867;28;20214;-58
2023/03/22 03:56:22;;;;;;;4.53;2.70;;;;;;;7.99;100.00;96453.09;5053585;28;20210;-58
2023/03/22 03:58:49;;;;;;;4.43;2.87;;;;;;;7.93;100.00;96457.09;5053842;28;20298;-58
2023/03/22 04:01:18;;;;;;;3.63;2.80;;;;;;;7.91;100.00;96447.66;5053393;28;20202;-58
2023/03/22 04:03:45;;;;;;;2.80;2.67;;;;;;;7.96;100.00;96456.84;5053607;28;20643;-57
2023/03/22 04:06:12;;;;;;;4.40;3.00;;;;;;;7.94;100.00;96460.53;5052395;28;20615;-58
2023/03/22 04:08:40;;;;;;;2.73;2.47;;;;;;;7.88;100.00;96458.44;5053264;28;20199;-58
2023/03/22 04:11:07;;;;;;;3.37;2.83;;;;;;;7.83;100.00;96461.47;5051838;28;20238;-58
2023/03/22 04:13:36;;;;;;;3.50;2.67;;;;;;;7.76;100.00;96465.59;5053265;28;20214;-57
2023/03/22 04:16:03;;;;;;;4.40;2.93;;;;;;;7.67;100.00;96471.63;5052649;28;20199;-57
2023/03/22 04:18:29;;;;;;;3.50;2.80;;;;;;;7.73;100.00;96465.00;5052745;28;20223;-58
2023/03/22 04:20:56;;;;;;;3.90;3.00;;;;;;;7.71;100.00;96464.31;5052416;28;20215;-57
2023/03/22 04:23:25;;;;;;;3.13;2.60;;;;;;;7.67;100.00;96461.09;5053264;28;20203;-58
2023/03/22 04:25:53;;;;;;;3.20;3.00;;;;;;;7.56;100.00;96465.59;5052310;28;20207;-57
2023/03/22 04:28:20;;;;;;;3.10;2.80;;;;;;;7.54;100.00;96457.00;5052635;28;20207;-57
2023/03/22 04:30:50;;;;;;;4.97;3.00;;;;;;;7.52;100.00;96457.13;5052870;28;20238;-57
2023/03/22 04:33:17;;;;;;;5.37;2.50;;;;;;;7.52;100.00;96457.13;5053273;28;20306;-57
2023/03/22 04:35:45;;;;;;;3.03;2.73;;;;;;;7.52;100.00;96459.75;5051815;28;20202;-57
2023/03/22 04:38:11;;;;;;;3.47;2.80;;;;;;;7.37;100.00;96453.16;5051633;28;20199;-58
2023/03/22 04:40:45;;;;;;;4.00;2.70;;;;;;;7.47;100.00;96456.69;5052674;28;20215;-58
2023/03/22 04:43:14;;;;;;;3.10;2.90;;;;;;;7.48;100.00;96456.56;5052730;28;20199;-57
2023/03/22 04:45:41;;;;;;;3.03;2.73;;;;;;;7.44;100.00;96462.19;5052387;28;20296;-58
2023/03/22 04:48:09;;;;;;;3.37;2.50;;;;;;;7.40;100.00;96450.28;5062000;28;20226;-57
2023/03/22 04:50:37;;;;;;;5.53;2.80;;;;;;;7.41;100.00;96444.88;5071397;28;20253;-58
2023/03/22 04:53:04;;;;;;;3.43;2.97;;;;;;;7.40;100.00;96447.66;5061653;28;20233;-57
2023/03/22 04:55:30;;;;;;;4.13;2.67;;;;;;;7.39;100.00;96448.59;5051904;28;20211;-58
2023/03/22 04:57:57;;;;;;;4.27;3.00;;;;;;;7.32;100.00;96450.09;5052743;28;20214;-58
2023/03/22 05:00:23;;;;;;;4.30;2.70;;;;;;;7.34;100.00;96448.13;5051818;28;20203;-57
2023/03/22 05:02:50;;;;;;;2.93;2.60;;;;;;;7.30;100.00;96446.72;5059347;28;20593;-59
2023/03/22 05:05:20;;;;;;;4.17;2.90;;;;;;;7.31;100.00;96443.97;5063497;28;20211;-57
2023/03/22 05:07:46;;;;;;;3.30;3.00;;;;;;;7.23;100.00;96454.28;5058006;28;20203;-57
2023/03/22 05:10:13;;;;;;;3.57;2.60;;;;;;;7.22;100.00;96457.06;5061192;28;20234;-57
2023/03/22 05:12:41;;;;;;;5.43;3.17;;;;;;;7.19;100.00;96460.75;5052794;28;20199;-58
2023/03/22 05:15:08;;;;;;;3.63;2.77;;;;;;;7.22;100.00;96452.66;5034087;28;20207;-56
2023/03/22 05:17:35;;;;;;;5.03;3.53;;;;;;;7.17;100.00;96456.59;5052039;28;20210;-59
2023/03/22 05:20:07;;;;;;;4.70;3.00;;;;;;;7.12;100.00;96454.34;5051798;28;20242;-58
2023/03/22 05:22:36;;;;;;;3.57;3.17;;;;;;;7.13;100.00;96457.81;5052035;28;20287;-58
2023/03/22 05:25:05;;;;;;;4.20;3.37;;;;;;;7.10;100.00;96466.78;5051390;28;20634;-58
2023/03/22 05:27:33;;;;;;;3.73;2.83;;;;;;;7.15;100.00;96458.53;5051329;28;20203;-58
2023/03/22 05:30:01;;;;;;;3.90;3.50;;;;;;;7.00;100.00;96461.47;5051268;28;20328;-58
2023/03/22 05:32:28;;;;;;;3.40;2.50;;;;;;;7.04;100.00;96461.22;5052035;28;20586;-57
2023/03/22 05:34:55;;;;;;;2.90;2.70;;;;;;;6.92;100.00;96463.88;5051312;28;20203;-58
2023/03/22 05:37:22;;;;;;;5.23;3.47;;;;;;;6.96;100.00;96467.09;5051230;28;20203;-56
2023/03/22 05:39:51;;;;;;;2.77;2.57;;;;;;;6.99;100.00;96459.78;5034448;28;20285;-58
2023/03/22 05:42:17;;;;;;;3.03;2.83;;;;;;;6.95;100.00;96465.41;5052229;28;20195;-57
2023/03/22 05:44:48;;;;;;;2.87;2.57;;;;;;;7.03;100.00;96459.53;5050958;28;20218;-56
2023/03/22 05:47:17;;;;;;;4.10;2.87;;;;;;;7.11;100.00;96462.38;5050720;28;20195;-56
2023/03/22 05:49:45;;;;;;;4.43;2.83;;;;;;;7.13;100.00;96468.34;5051801;28;20318;-58
2023/03/22 05:52:12;;;;;;;3.70;2.90;;;;;;;7.08;100.00;96463.47;5050988;28;20269;-58
2023/03/22 05:54:39;;;;;;;4.43;2.80;;;;;;;7.09;100.00;96465.13;5051052;28;20222;-58
2023/03/22 05:57:06;;;;;;;3.10;2.73;;;;;;;7.07;100.00;96466.22;5050374;28;20257;-58
2023/03/22 05:59:33;;;;;;;3.73;3.10;;;;;;;7.20;100.00;96461.59;5050301;28;20219;-56
2023/03/22 06:02:00;;;;;;;4.33;3.00;;;;;;;7.26;100.00;96469.00;5051515;28;20272;-57
2023/03/22 06:04:29;;;;;;;3.13;2.77;;;;;;;7.40;100.00;96461.63;5051336;28;20207;-57
2023/03/22 06:06:55;;;;;;;7.57;3.50;;;;;;;7.93;100.00;96451.00;5049997;28;20210;-57
2023/03/22 06:09:22;;;;;;;4.27;3.00;;;;;;;8.76;100.00;96451.56;5050943;28;20582;-55
2023/03/22 06:11:48;;;;;;;2.90;2.70;;;;;;;9.28;99.74;96449.53;5050883;28;20211;-57
2023/03/22 06:14:16;;;;;;;3.30;2.77;;;;;;;9.50;96.82;96451.84;5051700;28;20207;-57
2023/03/22 06:16:42;;;;;;;3.67;2.90;;;;;;;9.94;94.33;96456.50;5050553;28;20231;-57
2023/03/22 06:19:09;;;;;;;3.47;2.60;;;;;;;10.35;92.63;96449.13;5050762;28;20233;-58
2023/03/22 06:21:35;;;;;;;2.53;2.33;;;;;;;10.75;91.17;96457.53;5050480;28;20191;-58
2023/03/22 06:24:02;;;;;;;3.50;2.57;;;;;;;10.82;89.89;96457.78;5050925;28;20222;-56
2023/03/22 06:26:30;;;;;;;5.27;2.70;;;;;;;11.68;85.99;96458.91;5049559;28;20207;-58
2023/03/22 06:28:56;;;;;;;4.10;2.80;;;;;;;12.23;82.35;96460.28;5051225;28;20241;-56
2023/03/22 06:31:25;;;;;;;2.90;2.57;;;;;;;12.56;80.00;96455.97;5048849;28;20284;-56
2023/03/22 06:33:51;;;;;;;3.60;2.80;;;;;;;12.96;77.86;96461.41;5051077;28;20207;-57
2023/03/22 06:36:18;;;;;;;3.75;2.88;;;;;;;13.40;76.07;96454.03;5053309;28;20203;-57
2023/03/22 06:38:44;;;;;;;3.30;2.58;;;;;;;14.00;73.55;96456.31;5054639;28;20207;-56
2023/03/22 06:41:13;;;;;;;4.13;3.30;;;;;;;14.60;69.61;96454.03;5054807;28;20752;-55
2023/03/22 06:43:39;;;;;;;3.00;2.75;;;;;;;15.34;67.52;96457.97;5054496;28;20530;-57
2023/03/22 06:46:06;;;;;;;3.25;2.95;;;;;;;16.27;64.21;96461.19;5054314;28;20214;-57
2023/03/22 06:48:35;;;;;;;3.53;2.90;;;;;;;16.25;63.80;96457.91;5055488;28;20195;-56
2023/03/22 06:51:02;;;;;;;4.88;3.28;;;;;;;16.13;64.43;96456.66;5054340;28;20262;-56
2023/03/22 06:53:28;;;;;;;4.50;3.30;;;;;;;17.22;60.49;96462.06;5054855;28;20218;-57
2023/03/22 06:55:55;;;;;;;5.40;3.78;;;;;;;17.80;57.58;96455.69;5053947;28;20519;-57
2023/03/22 06:58:21;;;;;;;5.28;3.60;;;;;;;17.59;58.20;96459.22;5055247;28;20222;-58
2023/03/22 07:00:47;;;;;;;4.82;4.43;;;;;;;17.69;58.22;96461.56;5054568;28;20204;-57
2023/03/22 07:03:14;;;;;;;5.20;3.60;;;;;;;17.69;58.30;96470.41;5054646;28;20214;-57
2023/03/22 07:05:42;;;;;;;3.97;3.33;;;;;;;17.09;58.60;96467.25;5054093;28;20215;-56
2023/03/22 07:08:08;;;;;;;4.13;3.55;;;;;;;17.37;59.02;96465.53;5053886;28;20639;-57
2023/03/22 07:10:36;;;;;;;9.45;4.43;;;;;;;17.41;57.94;96466.81;5054107;28;20230;-57
2023/03/22 07:13:02;;;;;;;11.88;8.77;;;;;;;16.78;58.46;96463.00;5054698;28;20218;-56
2023/03/22 07:15:29;;;;;;;6.78;4.70;;;;;;;15.51;64.37;96464.88;5056481;28;20199;-57
2023/03/22 07:17:56;;;;;;;5.10;3.67;;;;;;;14.93;67.98;96466.22;5054336;28;20678;-58
2023/03/22 07:20:23;;;;;;;4.90;4.50;;;;;;;14.14;69.15;96468.09;5053975;28;20188;-58
2023/03/22 07:22:50;;;;;;;5.63;4.53;;;;;;;13.76;72.14;96465.16;5054424;28;20207;-57
2023/03/22 07:25:19;;;;;;;5.65;4.10;;;;;;;13.49;73.32;96456.69;5054319;28;20222;-57
2023/03/22 07:27:46;;;;;;;9.43;4.57;;;;;;;13.25;76.22;96462.81;5053787;28;20215;-57
2023/03/22 07:30:13;;;;;;;7.93;4.60;;;;;;;13.31;76.17;96459.50;5057163;28;20717;-57
2023/03/22 07:32:40;;;;;;;5.30;4.65;;;;;;;13.06;77.52;96461.25;5055820;28;20207;-57
2023/03/22 07:35:08;;;;;;;6.45;4.80;;;;;;;13.11;76.17;96460.81;5055768;28;20207;-59
2023/03/22 07:37:35;;;;;;;6.20;5.10;;;;;;;12.87;77.68;96465.03;5054373;28;20265;-57
2023/03/22 07:40:04;;;;;;;5.87;5.10;;;;;;;12.70;79.08;96447.38;5052862;28;20654;-57
2023/03/22 07:42:31;;;;;;;7.57;4.77;;;;;;;12.71;80.10;96456.19;5053325;28;20540;-58
2023/03/22 07:44:57;;;;;;;5.70;3.90;;;;;;;12.75;79.91;96453.03;5053482;28;20207;-58
2023/03/22 07:47:25;;;;;;;5.90;4.27;;;;;;;12.75;79.76;96447.72;5053322;28;20221;-57
2023/03/22 07:49:52;;;;;;;4.63;4.17;;;;;;;12.66;80.78;96448.69;5053872;28;20292;-57
2023/03/22 07:52:19;;;;;;;4.50;4.20;;;;;;;12.62;79.87;96446.50;5053545;28;20277;-58
2023/03/22 07:54:45;;;;;;;7.60;4.30;;;;;;;12.67;80.38;96453.03;5053697;28;20199;-57
2023/03/22 07:57:13;;;;;;;4.73;4.33;;;;;;;12.77;80.69;96447.56;5053773;28;20211;-58
2023/03/22 07:59:40;;;;;;;5.63;4.50;;;;;;;12.59;81.87;96447.69;5053687;28;20204;-58
2023/03/22 08:02:08;;;;;;;5.07;4.53;;;;;;;12.71;81.30;96449.06;5053195;28;20199;-58
2023/03/22 08:04:35;;;;;;;5.27;4.37;;;;;;;12.71;81.28;96437.63;5053518;28;20203;-57
2023/03/22 08:07:03;;;;;;;4.47;4.07;;;;;;;12.82;81.38;96442.63;5052840;28;20196;-58
2023/03/22 08:09:29;;;;;;;5.20;4.13;;;;;;;12.77;79.11;96435.13;5053166;28;20230;-58
2023/03/22 08:11:55;;;;;;;6.03;3.73;;;;;;;12.85;79.73;96443.13;5051520;28;20218;-57
2023/03/22 08:14:24;;;;;;;4.40;4.00;;;;;;;13.00;80.17;96445.16;5053298;28;20203;-57
2023/03/22 08:16:51;;;;;;;4.30;3.73;;;;;;;12.92;79.18;96449.47;5052658;28;20557;-57
2023/03/22 08:19:19;;;;;;;5.87;3.90;;;;;;;13.02;78.64;96437.84;5052558;28;20243;-58
2023/03/22 08:21:45;;;;;;;4.63;3.97;;;;;;;13.07;77.37;96446.16;5051880;28;20658;-58
2023/03/22 08:24:12;;;;;;;5.10;3.70;;;;;;;13.15;78.26;96443.53;5053372;28;20210;-57
2023/03/22 08:26:38;;;;;;;3.80;3.40;;;;;;;13.16;76.46;96439.91;5052624;28;20205;-57
2023/03/22 08:29:05;;;;;;;4.70;4.00;;;;;;;13.20;75.57;96441.22;5052924;28;20203;-57
2023/03/22 08:31:34;;;;;;;4.70;3.50;;;;;;;13.23;75.59;96441.72;5053369;28;20228;-57
2023/03/22 08:34:01;;;;;;;3.67;3.37;;;;;;;13.30;75.37;96447.22;5054552;28;20206;-56
2023/03/22 08:36:27;;;;;;;3.70;3.40;;;;;;;13.41;74.75;96445.06;5052393;28;20630;-56
2023/03/22 08:38:54;;;;;;;4.07;3.47;;;;;;;13.44;72.85;96443.91;5053060;28;20215;-57
2023/03/22 08:41:22;;;;;;;4.27;3.83;;;;;;;13.55;73.61;96453.38;5052749;28;20199;-57
2023/03/22 08:43:48;;;;;;;7.87;3.80;;;;;;;13.66;73.02;96450.38;5052755;28;20207;-57
2023/03/22 08:46:15;;;;;;;3.83;3.43;;;;;;;13.70;72.68;96455.22;5053384;28;20199;-57
2023/03/22 08:48:49;;;;;;;3.43;3.13;;;;;;;13.82;73.07;96443.22;5054158;28;20591;-57
2023/03/22 08:51:17;;;;;;;4.20;3.20;;;;;;;13.93;72.38;96452.69;5053811;28;20309;-57
2023/03/22 08:53:44;;;;;;;6.43;3.90;;;;;;;14.07;71.90;96456.47;5035273;28;20203;-57
2023/03/22 08:56:13;;;;;;;5.13;3.97;;;;;;;14.24;69.56;96450.16;5053646;28;20249;-57
2023/03/22 08:58:41;;;;;;;3.63;3.20;;;;;;;14.57;69.10;96453.53;5054061;28;20207;-57
2023/03/22 09:01:10;;;;;;;5.87;3.23;;;;;;;14.88;67.13;96460.56;5052881;28;20667;-57
2023/03/22 09:03:37;;;;;;;4.72;3.40;;;;;;;15.22;65.94;96448.72;5052560;28;20207;-57
2023/03/22 09:06:05;;;;;;;4.10;3.50;;;;;;;15.59;65.62;96446.16;5051990;28;20203;-57
2023/03/22 09:08:32;;;;;;;3.20;2.83;;;;;;;15.81;63.56;96455.13;5052355;28;21083;-57
2023/03/22 09:10:58;;;;;;;4.90;3.75;;;;;;;16.18;62.05;96446.28;5052937;28;20556;-57
2023/03/22 09:13:25;;;;;;;5.25;3.45;;;;;;;16.37;60.64;96440.41;5052296;28;20199;-58
2023/03/22 09:15:52;;;;;;;3.45;3.13;;;;;;;16.74;60.57;96432.34;5053132;28;20211;-59
2023/03/22 09:18:18;;;;;;;3.40;3.20;;;;;;;17.09;58.68;96440.53;5052588;28;20234;-58
2023/03/22 09:20:45;;;;;;;3.47;2.97;;;;;;;17.32;59.04;96430.53;5053956;28;20195;-59
2023/03/22 09:23:14;;;;;;;4.20;3.42;;;;;;;17.64;57.25;96438.06;5052804;28;20281;-58
2023/03/22 09:25:43;;;;;;;4.25;3.40;;;;;;;17.69;56.17;96438.31;5052157;28;20207;-59
2023/03/22 09:28:09;;;;;;;4.57;3.10;;;;;;;17.97;54.58;96441.03;5052440;28;20206;-58
2023/03/22 09:30:36;;;;;;;2.83;2.58;;;;;;;18.17;52.68;96435.84;5060680;28;20228;-58
2023/03/22 09:33:02;;;;;;;2.42;2.33;;;;;;;18.25;51.33;96430.31;5076598;28;20206;-58
2023/03/22 09:35:29;;;;;;;2.83;2.60;;;;;;;18.39;52.59;96427.53;5074763;28;20203;-57
2023/03/22 09:37:57;;;;;;;3.40;3.20;;;;;;;18.58;50.62;96423.34;5074086;28;20242;-58
2023/03/22 09:40:27;;;;;;;3.22;3.03;;;;;;;18.84;52.44;96428.84;5064179;28;20195;-56
2023/03/22 09:42:55;;;;;;;2.75;2.55;;;;;;;18.96;50.71;96428.25;5051851;28;20195;-57
2023/03/22 09:45:31;;;;;;;3.17;2.50;;;;;;;19.06;48.11;96421.50;5051668;28;20207;-58
2023/03/22 09:47:58;;;;;;;3.08;2.88;;;;;;;19.04;48.15;96422.72;5051675;28;20282;-57
2023/03/22 09:50:30;;;;;;;3.58;2.70;;;;;;;19.52;49.58;96427.00;5051450;28;20623;-57
2023/03/22 09:52:57;;;;;;;2.67;2.47;;;;;;;19.92;50.37;96416.31;5060372;28;20287;-57
2023/03/22 09:55:33;;;;;;;2.90;2.70;;;;;;;19.99;47.19;96415.28;5058913;28;20207;-57
2023/03/22 09:58:05;;;;;;;3.60;3.30;;;;;;;19.95;47.24;96415.88;5055422;28;20207;-57
2023/03/22 10:00:38;;;;;;;3.17;2.97;;;;;;;20.37;47.05;96399.34;5050721;28;20199;-57
2023/03/22 10:03:13;;;;;;;3.85;2.97;;;;;;;21.14;44.49;96406.56;5051053;28;20191;-57
2023/03/22 10:05:43;;;;;;;3.28;2.75;;;;;;;21.78;42.97;96404.50;5050602;28;20210;-57
2023/03/22 10:08:39;;;;;;;4.15;3.00;;;;;;;21.68;44.02;96398.75;5049939;28;20196;-58
2023/03/22 10:11:13;;;;;;;3.35;2.67;;;;;;;21.72;43.54;96399.97;5051199;28;20219;-58
2023/03/22 10:13:43;;;;;;;2.30;2.10;;;;;;;22.26;41.77;96406.59;5051266;28;20198;-58
2023/03/22 10:16:12;;;;;;;2.25;2.15;;;;;;;22.53;41.53;96394.50;5051566;28;20265;-58
2023/03/22 10:18:42;;;;;;;2.53;2.22;;;;;;;23.08;42.44;96408.84;5050926;28;20235;-57
2023/03/22 10:21:09;;;;;;;2.10;2.00;;;;;;;22.98;39.89;96397.78;5051153;28;20195;-58
2023/03/22 10:23:39;;;;;;;3.08;2.63;;;;;;;22.81;38.72;96394.84;5050845;28;21461;-57
2023/03/22 10:26:09;;;;;;;2.72;2.50;;;;;;;22.95;40.54;96394.72;5050906;28;20253;-57
2023/03/22 10:28:39;;;;;;;4.13;2.35;;;;;;;23.12;38.04;96385.75;5051092;28;20211;-58
2023/03/22 10:31:12;;;;;;;2.85;2.65;;;;;;;23.45;39.81;96384.53;5051060;28;20261;-58
2023/03/22 10:33:49;;;;;;;2.67;2.47;;;;;;;23.66;39.39;96376.72;5051068;28;20218;-57
2023/03/22 10:36:17;;;;;;;2.95;2.60;;;;;;;23.66;39.90;96371.31;5050424;28;20257;-56
2023/03/22 10:38:47;;;;;;;2.40;2.20;;;;;;;23.40;39.88;96379.78;5050979;28;20273;-58
2023/03/22 10:41:17;;;;;;;2.67;2.15;;;;;;;22.95;40.52;96373.97;5050585;28;20203;-58
2023/03/22 10:43:45;;;;;;;2.50;2.30;;;;;;;23.11;41.21;96370.63;5051382;28;20516;-58
2023/03/22 10:46:18;;;;;;;2.40;2.20;;;;;;;23.23;38.04;96370.69;5050119;28;20353;-58
2023/03/22 10:48:45;;;;;;;2.33;2.13;;;;;;;22.41;41.12;96360.47;5051076;28;20286;-58
2023/03/22 10:51:21;;;;;;;3.50;2.03;;;;;;;22.41;40.72;96352.38;5050476;28;20226;-58
2023/03/22 10:53:51;;;;;;;4.70;2.28;;;;;;;22.17;41.65;96354.09;5051343;28;20195;-58
2023/03/22 10:56:20;;;;;;;2.15;1.88;;;;;;;22.21;41.41;96352.59;5050001;28;20222;-57
2023/03/22 10:58:47;;;;;;;2.08;1.85;;;;;;;22.25;41.25;96354.59;5050641;28;20200;-57
2023/03/22 11:01:16;;;;;;;1.95;1.85;;;;;;;22.03;40.31;96352.56;5032780;28;20249;-56
2023/03/22 11:03:44;;;;;;;3.90;3.60;;;;;;;22.06;41.46;96344.84;5050381;28;20282;-57
2023/03/22 11:06:12;;;;;;;2.22;1.80;;;;;;;22.70;40.72;96347.09;5050205;28;20219;-57
2023/03/22 11:08:44;;;;;;;2.55;2.33;;;;;;;23.06;39.69;96337.31;5050552;28;20212;-56
2023/03/22 11:11:22;;;;;;;2.00;1.88;;;;;;;22.96;37.94;96331.59;5050271;28;20211;-57
2023/03/22 11:13:54;;;;;;;3.17;2.10;;;;;;;22.76;39.17;96335.41;5050268;28;20230;-58
2023/03/22 11:16:20;;;;;;;2.08;1.85;;;;;;;22.86;38.51;96326.75;5050263;28;20219;-58
2023/03/22 11:18:47;;;;;;;1.88;1.73;;;;;;;23.05;37.33;96324.88;5050046;28;20312;-57
2023/03/22 11:21:15;;;;;;;1.48;1.38;;;;;;;23.27;35.47;96328.69;5054078;28;20207;-57
2023/03/22 11:23:48;;;;;;;2.08;1.30;;;;;;;23.61;35.94;96324.47;5054378;28;20203;-56
2023/03/22 11:26:27;;;;;;;1.85;1.75;;;;;;;23.68;34.97;96312.50;5053579;28;20504;-57
2023/03/22 11:29:01;;;;;;;2.55;1.73;;;;;;;23.38;35.79;96314.44;5054032;28;20214;-57
2023/03/22 11:31:28;;;;;;;1.67;1.58;;;;;;;23.78;38.27;96299.25;5053958;28;20541;-57
2023/03/22 11:33:56;;;;;;;2.00;1.25;;;;;;;24.11;34.88;96308.66;5053772;28;20604;-57
2023/03/22 11:36:23;;;;;;;1.92;1.25;;;;;;;24.18;34.72;96301.28;5053476;28;20563;-56
2023/03/22 11:38:56;;;;;;;1.30;1.00;;;;;;;24.03;31.95;96301.72;5053462;28;20222;-57
2023/03/22 11:41:26;;;;;;;1.60;1.10;;;;;;;24.35;32.34;96298.66;5053222;28;20207;-57